createdAt,value
2018-05-29T00:00:35.682Z,79.70
2018-05-29T00:03:03.308Z,80.70
2018-05-29T00:05:30.877Z,81.50
2018-05-29T00:07:59.220Z,81.90
2018-05-29T00:10:26.804Z,82.40
2018-05-29T00:12:54.755Z,82.80
2018-05-29T00:15:22.720Z,82.80
2018-05-29T00:17:50.309Z,82.80
2018-05-29T00:20:17.869Z,82.70
2018-05-29T00:22:46.321Z,82.60
2018-05-29T00:25:13.873Z,82.80
2018-05-29T00:27:41.464Z,82.80
2018-05-29T00:30:09.044Z,83.00
2018-05-29T00:32:36.647Z,83.30
2018-05-29T00:35:04.199Z,83.40
2018-05-29T00:37:31.761Z,83.40
2018-05-29T00:39:59.353Z,83.00
2018-05-29T00:42:26.908Z,82.80
2018-05-29T00:44:54.874Z,82.30
2018-05-29T00:47:22.817Z,81.90
2018-05-29T00:49:50.422Z,81.90
2018-05-29T00:52:18.381Z,81.30
2018-05-29T00:54:58.104Z,80.90
2018-05-29T00:57:25.657Z,80.90
2018-05-29T00:59:53.212Z,80.90
2018-05-29T01:02:21.593Z,81.00
2018-05-29T01:04:49.160Z,81.20
2018-05-29T01:07:16.744Z,81.70
2018-05-29T01:09:44.724Z,82.60
2018-05-29T01:12:13.286Z,82.60
2018-05-29T01:14:40.830Z,82.90
2018-05-29T01:17:08.390Z,83.30
2018-05-29T01:19:36.627Z,83.50
2018-05-29T01:22:04.204Z,83.60
2018-05-29T01:24:32.606Z,83.50
2018-05-29T01:27:00.733Z,83.30
2018-05-29T01:29:28.571Z,82.90
2018-05-29T01:31:56.127Z,82.80
2018-05-29T01:34:24.111Z,82.10
2018-05-29T01:36:51.669Z,82.10
2018-05-29T01:39:24.573Z,81.80
2018-05-29T01:41:52.229Z,81.50
2018-05-29T01:44:19.839Z,81.30
2018-05-29T01:46:47.380Z,81.10
2018-05-29T01:49:14.976Z,81.00
2018-05-29T01:51:43.040Z,81.10
2018-05-29T01:54:11.064Z,81.20
2018-05-29T01:56:38.714Z,81.20
2018-05-29T01:59:06.377Z,81.30
2018-05-29T02:01:34.020Z,81.30
2018-05-29T02:04:01.599Z,81.40
2018-05-29T02:06:30.674Z,81.40
2018-05-29T02:08:58.642Z,81.10
2018-05-29T02:11:26.269Z,81.10
2018-05-29T02:13:53.947Z,80.90
2018-05-29T02:16:21.977Z,80.50
2018-05-29T02:18:49.564Z,80.50
2018-05-29T02:21:17.185Z,80.50
2018-05-29T02:23:44.785Z,80.50
2018-05-29T02:26:12.381Z,80.60
2018-05-29T02:28:40.452Z,80.70
2018-05-29T02:31:08.087Z,80.70
2018-05-29T02:33:35.724Z,80.50
2018-05-29T02:36:03.421Z,80.60
2018-05-29T02:38:31.541Z,80.60
2018-05-29T02:40:59.210Z,80.60
2018-05-29T02:43:26.935Z,80.50
2018-05-29T02:45:54.544Z,80.30
2018-05-29T02:48:22.164Z,80.20
2018-05-29T02:50:49.788Z,80.10
2018-05-29T02:53:17.457Z,80.30
2018-05-29T02:55:45.532Z,80.30
2018-05-29T02:58:13.159Z,80.30
2018-05-29T03:00:40.828Z,80.40
2018-05-29T03:03:08.466Z,80.30
2018-05-29T03:05:36.170Z,80.40
2018-05-29T03:08:03.837Z,80.30
2018-05-29T03:10:31.586Z,80.30
2018-05-29T03:12:59.189Z,80.30
2018-05-29T03:15:26.785Z,80.40
2018-05-29T03:17:54.335Z,80.50
2018-05-29T03:20:21.946Z,80.60
2018-05-29T03:22:49.908Z,80.90
2018-05-29T03:25:19.292Z,81.00
2018-05-29T03:27:47.752Z,81.20
2018-05-29T03:30:15.341Z,81.50
2018-05-29T03:32:42.908Z,81.90
2018-05-29T03:35:11.447Z,82.00
2018-05-29T03:37:39.744Z,82.40
2018-05-29T03:40:07.332Z,82.70
2018-05-29T03:42:34.891Z,82.90
2018-05-29T03:45:02.503Z,83.10
2018-05-29T03:47:30.097Z,83.20
2018-05-29T03:49:58.692Z,83.20
2018-05-29T03:52:26.311Z,83.20
2018-05-29T03:54:55.742Z,83.30
2018-05-29T03:57:23.332Z,83.50
2018-05-29T03:59:51.284Z,84.30
2018-05-29T04:02:18.841Z,84.30
2018-05-29T04:04:46.406Z,84.60
2018-05-29T04:07:15.481Z,84.90
2018-05-29T04:09:46.649Z,85.20
2018-05-29T04:12:14.987Z,85.40
2018-05-29T04:14:43.978Z,85.50
2018-05-29T04:17:14.685Z,85.60
2018-05-29T04:19:42.794Z,85.60
2018-05-29T04:22:11.461Z,85.50
2018-05-29T04:24:40.865Z,85.30
2018-05-29T04:27:09.346Z,85.30
2018-05-29T04:29:40.463Z,85.10
2018-05-29T04:32:08.328Z,85.10
2018-05-29T04:34:37.473Z,84.90
2018-05-29T04:37:12.732Z,84.90
2018-05-29T04:39:42.302Z,84.40
2018-05-29T04:42:12.128Z,84.40
2018-05-29T04:44:44.484Z,84.00
2018-05-29T04:47:14.643Z,84.30
2018-05-29T04:49:42.922Z,84.10
2018-05-29T04:52:18.031Z,84.00
2018-05-29T04:54:46.991Z,83.60
2018-05-29T04:57:15.429Z,83.60
2018-05-29T04:59:43.033Z,83.20
2018-05-29T05:02:12.626Z,83.10
2018-05-29T05:04:42.340Z,83.10
2018-05-29T05:07:11.153Z,82.80
2018-05-29T05:09:42.498Z,82.80
2018-05-29T05:12:10.143Z,82.80
2018-05-29T05:14:37.748Z,82.60
2018-05-29T05:17:08.001Z,82.60
2018-05-29T05:19:36.432Z,82.10
2018-05-29T05:22:04.821Z,82.10
2018-05-29T05:24:33.640Z,81.60
2018-05-29T05:27:01.764Z,81.50
2018-05-29T05:29:30.186Z,81.20
2018-05-29T05:31:57.914Z,81.10
2018-05-29T05:34:26.390Z,81.50
2018-05-29T05:36:54.056Z,81.60
2018-05-29T05:39:23.585Z,80.70
2018-05-29T05:41:53.013Z,80.80
2018-05-29T05:44:21.191Z,80.60
2018-05-29T05:46:52.180Z,80.50
2018-05-29T05:49:19.948Z,80.10
2018-05-29T05:51:50.985Z,80.20
2018-05-29T05:54:18.528Z,80.60
2018-05-29T05:56:46.503Z,80.60
2018-05-29T05:59:14.077Z,80.40
2018-05-29T06:01:41.646Z,80.20
2018-05-29T06:04:10.453Z,80.30
2018-05-29T06:06:38.000Z,79.50
2018-05-29T06:09:05.958Z,79.90
2018-05-29T06:11:33.494Z,80.40
2018-05-29T06:14:01.089Z,80.40
2018-05-29T06:16:29.289Z,81.10
2018-05-29T06:18:57.737Z,80.70
2018-05-29T06:21:27.444Z,79.80
2018-05-29T06:23:55.080Z,79.50
2018-05-29T06:26:22.638Z,79.60
2018-05-29T06:28:50.791Z,79.30
2018-05-29T06:31:18.886Z,78.30
2018-05-29T06:33:46.460Z,77.90
2018-05-29T06:36:14.015Z,77.50
2018-05-29T06:38:42.848Z,77.20
2018-05-29T06:41:11.441Z,76.80
2018-05-29T06:43:39.413Z,75.90
2018-05-29T06:46:07.400Z,75.90
2018-05-29T06:48:35.106Z,75.90
2018-05-29T06:51:03.473Z,76.00
2018-05-29T06:53:31.877Z,75.50
2018-05-29T06:56:01.160Z,75.40
2018-05-29T06:58:28.687Z,74.50
2018-05-29T07:00:57.053Z,74.60
2018-05-29T07:03:24.598Z,74.50
2018-05-29T07:05:52.213Z,75.40
2018-05-29T07:08:19.772Z,75.10
2018-05-29T07:10:47.313Z,75.40
2018-05-29T07:13:17.163Z,73.30
2018-05-29T07:15:44.772Z,73.00
2018-05-29T07:18:12.380Z,73.10
2018-05-29T07:20:39.982Z,73.80
2018-05-29T07:23:08.075Z,73.50
2018-05-29T07:25:35.684Z,73.50
2018-05-29T07:28:03.239Z,73.10
2018-05-29T07:30:30.890Z,73.00
2018-05-29T07:32:58.822Z,72.60
2018-05-29T07:35:27.029Z,70.90
2018-05-29T07:37:56.503Z,71.30
2018-05-29T07:40:24.045Z,71.80
2018-05-29T07:42:52.404Z,69.90
2018-05-29T07:45:21.039Z,69.40
2018-05-29T07:47:48.647Z,69.80
2018-05-29T07:50:17.579Z,68.30
2018-05-29T07:52:46.146Z,68.50
2018-05-29T07:55:13.736Z,68.70
2018-05-29T07:57:41.366Z,68.80
2018-05-29T08:00:09.952Z,67.10
2018-05-29T08:02:37.619Z,66.90
2018-05-29T08:05:05.157Z,67.10
2018-05-29T08:07:34.008Z,68.10
2018-05-29T08:10:04.398Z,67.50
2018-05-29T08:12:33.511Z,68.50
2018-05-29T08:15:01.092Z,69.00
2018-05-29T08:17:28.681Z,68.70
2018-05-29T08:19:56.253Z,69.00
2018-05-29T08:22:23.817Z,69.40
2018-05-29T08:24:52.719Z,69.00
2018-05-29T08:27:20.392Z,69.60
2018-05-29T08:29:48.469Z,70.40
2018-05-29T08:32:16.005Z,68.10
2018-05-29T08:34:45.382Z,68.10
2018-05-29T08:37:12.966Z,68.30
2018-05-29T08:39:40.559Z,67.80
2018-05-29T08:42:08.051Z,66.70
2018-05-29T08:44:36.145Z,66.00
2018-05-29T08:47:03.698Z,66.00
2018-05-29T08:49:31.257Z,64.20
2018-05-29T08:51:58.845Z,64.70
2018-05-29T08:54:27.911Z,65.00
2018-05-29T08:56:55.474Z,65.20
2018-05-29T08:59:23.961Z,66.30
2018-05-29T09:01:52.276Z,64.50
2018-05-29T09:04:19.924Z,65.60
2018-05-29T09:09:21.731Z,63.40
2018-05-29T09:11:50.206Z,64.00
2018-05-29T09:14:17.796Z,64.00
2018-05-29T09:16:45.916Z,64.40
2018-05-29T09:19:13.485Z,65.30
2018-05-29T09:21:41.101Z,65.50
2018-05-29T09:24:08.718Z,65.30
2018-05-29T09:26:36.293Z,63.10
2018-05-29T09:29:03.854Z,63.50
2018-05-29T09:31:32.282Z,63.10
2018-05-29T09:34:00.529Z,61.40
2018-05-29T09:36:28.263Z,63.40
2018-05-29T09:38:56.902Z,61.80
2018-05-29T09:41:24.548Z,61.80
2018-05-29T09:43:52.044Z,63.20
2018-05-29T09:46:19.618Z,61.10
2018-05-29T09:48:47.166Z,58.10
2018-05-29T09:51:14.710Z,61.30
2018-05-29T09:53:43.799Z,59.70
2018-05-29T09:56:12.349Z,60.80
2018-05-29T09:58:39.938Z,58.90
2018-05-29T10:01:07.583Z,59.90
2018-05-29T10:43:13.369Z,57.30
2018-05-29T10:46:01.501Z,54.70
2018-05-29T10:48:29.240Z,54.40
2018-05-29T10:50:57.857Z,56.30
2018-05-29T10:53:30.883Z,56.20
2018-05-29T10:56:04.298Z,55.80
2018-05-29T10:58:32.956Z,53.90
2018-05-29T11:01:00.637Z,52.20
2018-05-29T11:03:28.605Z,52.80
2018-05-29T11:05:58.870Z,53.80
2018-05-29T11:08:28.821Z,52.60
2018-05-29T11:13:43.301Z,51.60
2018-05-29T11:19:01.350Z,51.90
2018-05-29T11:21:29.622Z,49.30
2018-05-29T11:23:57.267Z,49.60
2018-05-29T11:26:24.885Z,50.80
2018-05-29T11:32:02.454Z,48.70
2018-05-29T11:34:35.668Z,48.90
2018-05-29T11:37:03.306Z,49.50
2018-05-29T11:39:31.685Z,47.60
2018-05-29T11:42:05.821Z,49.10
2018-05-29T11:44:33.508Z,49.00
2018-05-29T11:47:02.769Z,48.60
2018-05-29T11:49:30.388Z,47.80
2018-05-29T11:51:58.055Z,48.70
2018-05-29T11:54:25.694Z,48.90
2018-05-29T11:56:53.301Z,48.80
2018-05-29T11:59:20.884Z,48.80
2018-05-29T12:07:39.114Z,48.00
2018-05-29T12:12:42.101Z,43.40
2018-05-29T12:15:09.681Z,42.10
2018-05-29T12:17:37.346Z,40.90
2018-05-29T12:20:04.980Z,39.50
2018-05-29T12:22:32.688Z,42.20
2018-05-29T12:25:01.275Z,41.90
2018-05-29T12:27:28.930Z,43.60
2018-05-29T12:29:56.977Z,44.50
2018-05-29T12:32:24.592Z,44.60
2018-05-29T12:34:52.208Z,46.20
2018-05-29T12:37:20.006Z,44.90
2018-05-29T12:39:48.673Z,44.10
2018-05-29T12:42:33.560Z,41.80
2018-05-29T12:45:01.200Z,39.80
2018-05-29T12:47:46.523Z,39.30
2018-05-29T12:50:23.249Z,40.30
2018-05-29T12:58:42.000Z,44.90
2018-05-29T13:01:14.719Z,44.90
2018-05-29T13:03:43.481Z,47.20
2018-05-29T13:06:11.132Z,46.20
2018-05-29T13:08:38.930Z,45.20
2018-05-29T13:11:06.725Z,41.50
2018-05-29T13:13:34.352Z,40.10
2018-05-29T13:16:01.982Z,42.30
2018-05-29T13:18:29.582Z,42.70
2018-05-29T13:20:57.208Z,43.30
2018-05-29T13:23:24.865Z,44.80
2018-05-29T13:25:53.449Z,45.20
2018-05-29T13:28:26.786Z,48.20
2018-05-29T13:30:54.488Z,50.20
2018-05-29T13:33:22.105Z,51.10
2018-05-29T13:35:49.681Z,50.20
2018-05-29T13:38:17.281Z,50.80
2018-05-29T13:40:44.878Z,50.40
2018-05-29T13:43:12.509Z,50.20
2018-05-29T13:48:13.938Z,44.10
2018-05-29T13:50:41.529Z,40.10
2018-05-29T13:53:09.249Z,37.30
2018-05-29T13:55:36.871Z,36.40
2018-05-29T13:58:04.500Z,38.30
2018-05-29T14:00:32.079Z,40.00
2018-05-29T14:02:59.673Z,40.80
2018-05-29T14:05:27.312Z,43.50
2018-05-29T14:07:54.936Z,45.50
2018-05-29T14:10:23.494Z,46.60
2018-05-29T14:12:51.127Z,48.30
2018-05-29T14:15:18.684Z,48.40
2018-05-29T14:17:46.280Z,47.80
2018-05-29T14:20:13.933Z,47.30
2018-05-29T14:22:41.514Z,47.20
2018-05-29T14:25:09.117Z,47.80
2018-05-29T14:27:36.717Z,48.20
2018-05-29T14:30:04.304Z,49.10
2018-05-29T14:32:31.897Z,50.70
2018-05-29T14:34:59.490Z,52.10
2018-05-29T14:37:27.054Z,53.30
2018-05-29T14:39:54.662Z,52.40
2018-05-29T14:42:22.290Z,52.10
2018-05-29T14:44:49.893Z,53.40
2018-05-29T14:47:17.503Z,54.50
2018-05-29T14:49:45.088Z,55.40
2018-05-29T14:52:12.688Z,56.10
2018-05-29T14:54:40.278Z,57.50
2018-05-29T14:57:07.969Z,57.00
2018-05-29T14:59:35.546Z,57.80
2018-05-29T15:02:03.142Z,58.80
2018-05-29T15:04:30.725Z,59.50
2018-05-29T15:06:58.311Z,60.00
2018-05-29T15:09:25.978Z,59.90
2018-05-29T15:11:53.583Z,60.70
2018-05-29T15:14:21.205Z,62.00
2018-05-29T15:16:48.902Z,61.90
2018-05-29T15:19:16.506Z,62.60
2018-05-29T15:21:44.075Z,62.20
2018-05-29T15:24:11.688Z,62.70
2018-05-29T15:26:39.279Z,63.60
2018-05-29T15:29:06.961Z,64.60
2018-05-29T15:31:34.554Z,64.70
2018-05-29T15:34:02.155Z,65.60
2018-05-29T15:36:30.031Z,65.50
2018-05-29T15:38:57.627Z,66.30
2018-05-29T15:41:25.233Z,66.50
2018-05-29T15:43:52.873Z,66.90
2018-05-29T15:46:20.471Z,67.10
2018-05-29T15:48:48.408Z,67.10
2018-05-29T15:51:15.989Z,67.40
2018-05-29T15:53:43.593Z,67.60
2018-05-29T15:56:11.172Z,67.40
2018-05-29T15:58:38.772Z,68.00
2018-05-29T16:01:06.353Z,67.70
2018-05-29T16:03:33.984Z,68.00
2018-05-29T16:06:01.639Z,68.70
2018-05-29T16:08:29.341Z,68.30
2018-05-29T16:10:57.382Z,68.90
2018-05-29T16:13:25.040Z,69.20
2018-05-29T16:15:52.664Z,69.60
2018-05-29T16:18:20.324Z,70.20
2018-05-29T16:20:47.910Z,71.40
2018-05-29T16:23:15.524Z,71.30
2018-05-29T16:25:43.127Z,73.10
2018-05-29T16:28:10.696Z,71.70
2018-05-29T16:30:38.317Z,71.30
2018-05-29T16:33:05.889Z,70.60
2018-05-29T16:35:33.521Z,70.20
2018-05-29T16:38:01.128Z,68.90
2018-05-29T16:40:28.828Z,68.70
2018-05-29T16:42:56.331Z,67.40
2018-05-29T16:45:23.912Z,67.10
2018-05-29T16:47:51.489Z,66.50
2018-05-29T16:50:19.090Z,65.00
2018-05-29T16:52:46.679Z,66.20
2018-05-29T16:55:14.269Z,65.70
2018-05-29T16:57:41.880Z,66.40
2018-05-29T17:00:09.502Z,67.00
2018-05-29T17:02:37.087Z,67.90
2018-05-29T17:05:04.980Z,68.00
2018-05-29T17:07:35.741Z,68.50
2018-05-29T17:10:03.774Z,69.30
2018-05-29T17:12:31.485Z,69.30
2018-05-29T17:14:59.100Z,69.70
2018-05-29T17:17:26.902Z,70.00
2018-05-29T17:19:54.897Z,70.50
2018-05-29T17:22:23.080Z,70.50
2018-05-29T17:24:54.538Z,70.90
2018-05-29T17:27:22.210Z,70.90
2018-05-29T17:29:49.987Z,71.30
2018-05-29T17:32:17.926Z,70.90
2018-05-29T17:34:45.600Z,71.00
2018-05-29T17:37:13.205Z,70.60
2018-05-29T17:39:41.187Z,71.20
2018-05-29T17:42:09.189Z,71.30
2018-05-29T17:44:36.795Z,71.30
2018-05-29T17:47:04.480Z,71.30
2018-05-29T17:49:32.881Z,71.70
2018-05-29T17:52:00.777Z,72.10
2018-05-29T17:54:31.200Z,72.00
2018-05-29T17:56:59.120Z,72.90
2018-05-29T17:59:26.920Z,73.10
2018-05-29T18:01:55.021Z,72.80
2018-05-29T18:07:09.927Z,73.00
2018-05-29T18:09:37.907Z,73.40
2018-05-29T18:12:05.690Z,71.80
2018-05-29T18:14:33.574Z,72.10
2018-05-29T18:17:01.332Z,72.90
2018-05-29T18:19:29.163Z,74.50
2018-05-29T18:21:58.573Z,75.50
2018-05-29T18:24:26.494Z,76.80
2018-05-29T18:26:54.318Z,78.10
2018-05-29T18:29:22.032Z,79.30
2018-05-29T18:31:49.667Z,79.10
2018-05-29T18:34:19.084Z,78.80
2018-05-29T18:36:47.520Z,79.30
2018-05-29T18:39:15.115Z,78.30
2018-05-29T18:41:42.693Z,77.90
2018-05-29T18:44:10.276Z,78.80
2018-05-29T18:46:38.319Z,81.30
2018-05-29T18:49:05.913Z,81.30
2018-05-29T18:51:33.525Z,85.20
2018-05-29T18:54:01.084Z,85.60
2018-05-29T18:56:28.672Z,87.10
2018-05-29T19:01:30.565Z,88.50
2018-05-29T19:03:59.089Z,88.50
2018-05-29T19:06:26.677Z,88.90
2018-05-29T19:08:54.289Z,89.80
2018-05-29T19:11:21.925Z,89.80
2018-05-29T19:13:49.501Z,89.70
2018-05-29T19:16:17.455Z,89.00
2018-05-29T19:18:45.409Z,90.50
2018-05-29T19:21:12.977Z,90.40
2018-05-29T19:23:40.525Z,91.60
2018-05-29T19:26:08.160Z,91.50
2018-05-29T19:28:35.986Z,92.20
2018-05-29T19:31:03.878Z,92.40
2018-05-29T19:33:32.231Z,93.10
2018-05-29T19:36:03.125Z,93.10
2018-05-29T19:38:31.003Z,92.70
2018-05-29T19:40:59.431Z,92.30
2018-05-29T19:43:27.520Z,92.30
2018-05-29T19:45:55.728Z,91.20
2018-05-29T19:48:46.143Z,91.20
2018-05-29T19:51:14.182Z,90.90
2018-05-29T19:53:42.732Z,90.90
2018-05-29T19:56:11.453Z,91.40
2018-05-29T19:58:39.365Z,91.70
2018-05-29T20:01:07.393Z,92.40
2018-05-29T20:03:35.673Z,92.40
2018-05-29T20:06:03.637Z,93.00
2018-05-29T20:08:31.334Z,93.70
2018-05-29T20:10:59.308Z,93.70
2018-05-29T20:13:27.617Z,94.00
2018-05-29T20:15:55.280Z,94.00
2018-05-29T20:18:22.920Z,94.00
2018-05-29T20:20:50.605Z,94.00
2018-05-29T20:23:18.211Z,94.20
2018-05-29T20:25:45.793Z,93.70
2018-05-29T20:28:14.997Z,93.50
2018-05-29T20:30:47.276Z,93.50
2018-05-29T20:33:15.276Z,93.20
2018-05-29T20:35:42.931Z,93.20
2018-05-29T20:38:10.785Z,92.60
2018-05-29T20:40:38.502Z,92.20
2018-05-29T20:43:06.063Z,92.00
2018-05-29T20:45:33.776Z,91.60
2018-05-29T20:48:01.370Z,91.50
2018-05-29T20:50:28.940Z,91.70
2018-05-29T20:52:56.539Z,91.40
2018-05-29T20:55:24.784Z,91.00
2018-05-29T20:57:52.382Z,91.00
2018-05-29T21:00:19.976Z,90.80
2018-05-29T21:02:47.580Z,90.70
2018-05-29T21:05:15.520Z,90.30
2018-05-29T21:07:43.145Z,90.30
2018-05-29T21:10:10.757Z,89.70
2018-05-29T21:12:38.360Z,90.10
2018-05-29T21:15:05.939Z,89.80
2018-05-29T21:17:33.559Z,89.80
2018-05-29T21:20:01.561Z,89.70
2018-05-29T21:22:29.181Z,89.70
2018-05-29T21:24:57.219Z,88.60
2018-05-29T21:27:24.844Z,88.70
2018-05-29T21:29:52.425Z,89.40
2018-05-29T21:32:20.157Z,89.10
2018-05-29T21:34:47.765Z,88.30
2018-05-29T21:37:15.329Z,88.40
2018-05-29T21:39:42.940Z,89.00
2018-05-29T21:42:10.565Z,88.30
2018-05-29T21:44:38.216Z,88.10
2018-05-29T21:47:05.795Z,87.90
2018-05-29T21:49:33.391Z,87.40
2018-05-29T21:52:01.073Z,87.60
2018-05-29T21:54:28.666Z,87.40
2018-05-29T21:56:56.229Z,86.90
2018-05-29T21:59:23.851Z,86.60
2018-05-29T22:01:51.424Z,87.20
2018-05-29T22:04:18.996Z,87.70
2018-05-29T22:06:46.548Z,86.30
2018-05-29T22:09:14.173Z,85.90
2018-05-29T22:11:41.794Z,86.70
2018-05-29T22:14:09.389Z,86.30
2018-05-29T22:16:36.987Z,85.90
2018-05-29T22:19:04.569Z,86.30
2018-05-29T22:21:32.201Z,86.30
2018-05-29T22:23:59.789Z,86.50
2018-05-29T22:26:27.380Z,87.00
2018-05-29T22:28:54.968Z,87.30
2018-05-29T22:31:22.571Z,87.10
2018-05-29T22:33:50.146Z,86.90
2018-05-29T22:36:17.763Z,86.40
2018-05-29T22:38:45.354Z,85.90
2018-05-29T22:41:12.939Z,86.60
2018-05-29T22:43:40.913Z,87.90
2018-05-29T22:46:08.890Z,88.60
2018-05-29T22:48:36.455Z,88.60
2018-05-29T22:51:04.020Z,88.80
2018-05-29T22:53:31.599Z,89.60
2018-05-29T22:55:59.161Z,90.10
2018-05-29T22:58:26.746Z,90.40
2018-05-29T23:00:54.763Z,90.50
2018-05-29T23:03:22.424Z,90.80
2018-05-29T23:05:50.028Z,91.30
2018-05-29T23:08:17.832Z,91.10
2018-05-29T23:10:45.804Z,91.20
2018-05-29T23:13:13.761Z,91.30
2018-05-29T23:15:41.375Z,91.30
2018-05-29T23:18:08.996Z,91.50
2018-05-29T23:20:36.983Z,91.00
2018-05-29T23:23:04.561Z,91.00
2018-05-29T23:25:32.197Z,90.60
2018-05-29T23:27:59.747Z,90.70
2018-05-29T23:30:27.346Z,90.20
2018-05-29T23:32:54.938Z,90.20
2018-05-29T23:35:22.555Z,90.20
2018-05-29T23:37:50.205Z,90.60
2018-05-29T23:40:17.805Z,90.70
2018-05-29T23:42:45.789Z,90.90
2018-05-29T23:45:13.360Z,91.00
2018-05-29T23:47:41.112Z,91.10
2018-05-29T23:50:08.721Z,90.80
2018-05-29T23:52:36.306Z,90.30
2018-05-29T23:55:03.920Z,90.60
2018-05-29T23:57:32.618Z,90.70
